首页
METAR-TAF:

METAR-TAF

机场 :

仁川國際機場

仁川国际机场, 大韩民国

纬度: 37-28N, 经度: 126-27E, 海拔: 7米

当前天气观测

该预报发布于29分钟前的11:00 UTC
风速3节,风向东北
温度 6°C
湿度 45%
气压 1023 hPa
能见度10公里或以上
1500米以下无云,无积雨云

METAR: RKSI 171100Z 04003KT CAVOK 06/M05 Q1023 NOSIG

时间: 20:29 (11:29 UTC)

预报

该预报发布于6小时和29分钟前的05:00 UTC
预报有效从17日的 06点(UTC)到 18日的 12点(UTC)
风速10节,风向西北
能见度10公里或以上
1500米以下无云,无积雨云
成为
从 17日的 11点(UTC)到 17日的 12点(UTC)
风速6节,风向
短暂存在
从 17日的 19点(UTC)到 18日的 01点(UTC)
风速6节,风向东转东北
能見度: 6000
成为
从 18日的 01点(UTC)到 18日的 02点(UTC)
风速6节,风向南转南东
能见度10公里或以上
少量云层高于3000英尺
多云层高于12000英尺
成为
从 18日的 08点(UTC)到 18日的 09点(UTC)
风速7节,风向西转西北
成为
从 18日的 11点(UTC)到 18日的 12点(UTC)
多云层高于3000英尺
多云层高于10000英尺

TAF: RKSI 170500Z 1706/1812 31010KT CAVOK TN02/1721Z TX10/1805Z BECMG 1711/1712 01006KT TEMPO 1719/1801 07006KT 6000 NSC BECMG 1801/1802 16006KT 9999 FEW030 BKN120 BECMG 1808/1809 30007KT BECMG 1811/1812 BKN030 BKN100

超过4000个机场的气象观测和天气预报(METAR&TAF报告)。

可查询的气象台以黄色和红色小点在地图上表示。

将鼠标移到小点上方,可查看气象台名称。

然后点击查看天气观测和预报。

如需切换地图:点击带黑十字的绿色按钮放大地图;点击带横线的绿色按钮缩小地图;或者点击绿色箭头查看邻近地区的地图。


METAR-TAF: